Terminal Aerodrome Forecast
Issued by NWS

Home | Current Version | Previous Version | Text Only | Print | Product List | Glossary On
Versions: 1 2 3 4 5 6 7 8 9 10 11 12 13 14 15 16 17 18 19 20 21 22 23 24 25 26 27 28
101
FTUS41 KPBZ 250534
TAFDUJ
TAF
KDUJ 250534Z 2506/2606 12011KT 5SM +SHRA OVC006 WS020/15040KT
     FM250900 14012G20KT 3SM +SHRA OVC010 WS020/15040KT
     FM251800 26009KT P6SM SCT035=

USA.gov is the U.S. government's official web portal to all federal, state and local government web resources and services.